Huvudsida
METAR-TAF:

METAR-TAF

Flygplatser :

Supadio Airport

Pontianak, Indonesien

latitud: 00-09S, longitud: 109-24E, höjd: 3 m

Aktuellt väderrapport

Denna rapport gjordes för 26 minuter sedan, klockan 14:30 UTC
Vind 4 kt från syd/sydost
Temperatur 26°C
Fuktighet 89%
Tryck 1009 hPa
Sikt: 1000 m
rök

METAR: WIOO 201430Z 16004KT 1000 FU VV007 26/24 Q1009

Tid: 21:56 (14:56 UTC)


TAF: saknas

Aktuella väderrapporter och prognoser från 4000 flygplatser (METAR- och TAF-rapporter).

De tillgängliga stationerna syns som gula och röda prickar på kartan.

För musen över prickarna för att se namnen på stationerna.

Klicka sedan för att få väderrapporter och prognoser.

För att ändra kartan: Klicka på de gröna knapparna med ett svart kors på för att zooma in; den gröna knappen med ett streck på för att zooma ut; eller på de gröna pilarna för angränsande kartor.


METAR-TAF: